createdAt,value
2023-04-07T00:01:13.172Z,9.70
2023-04-07T00:03:41.802Z,9.82
2023-04-07T00:06:10.066Z,10.57
2023-04-07T00:08:37.880Z,9.25
2023-04-07T00:11:06.037Z,11.10
2023-04-07T00:13:33.684Z,10.63
2023-04-07T00:16:01.576Z,9.75
2023-04-07T00:18:29.199Z,9.80
2023-04-07T00:20:57.128Z,9.80
2023-04-07T00:23:24.652Z,10.48
2023-04-07T00:25:52.385Z,9.25
2023-04-07T00:28:20.104Z,10.20
2023-04-07T00:30:47.756Z,10.27
2023-04-07T00:33:15.437Z,10.30
2023-04-07T00:35:43.214Z,10.20
2023-04-07T00:38:10.808Z,9.75
2023-04-07T00:40:38.925Z,10.05
2023-04-07T00:43:09.488Z,9.18
2023-04-07T00:45:37.216Z,8.82
2023-04-07T00:48:05.903Z,10.63
2023-04-07T00:50:33.788Z,10.68
2023-04-07T00:53:02.692Z,9.63
2023-04-07T00:55:30.395Z,10.65
2023-04-07T00:57:58.062Z,9.10
2023-04-07T01:00:28.357Z,10.15
2023-04-07T01:03:02.286Z,9.38
2023-04-07T01:05:51.706Z,10.23
2023-04-07T01:08:51.827Z,10.07
2023-04-07T01:11:37.175Z,9.25
2023-04-07T01:14:06.993Z,8.80
2023-04-07T01:16:53.086Z,10.23
2023-04-07T01:19:36.728Z,10.35
2023-04-07T01:22:10.919Z,10.13
2023-04-07T01:25:17.245Z,10.20
2023-04-07T01:28:03.496Z,9.23
2023-04-07T01:30:34.950Z,9.20
2023-04-07T01:33:02.952Z,9.07
2023-04-07T01:35:34.825Z,10.00
2023-04-07T01:38:05.524Z,10.02
2023-04-07T01:40:36.547Z,10.55
2023-04-07T01:43:04.863Z,9.57
2023-04-07T01:45:35.787Z,10.13
2023-04-07T01:48:07.202Z,10.23
2023-04-07T01:50:35.250Z,9.52
2023-04-07T01:53:03.940Z,10.65
2023-04-07T01:55:32.287Z,9.88
2023-04-07T01:58:07.338Z,10.20
2023-04-07T02:00:36.913Z,9.68
2023-04-07T02:03:21.206Z,10.15
2023-04-07T02:05:52.715Z,9.95
2023-04-07T02:08:24.217Z,9.65
2023-04-07T02:10:55.195Z,9.38
2023-04-07T02:13:24.163Z,10.00
2023-04-07T02:15:55.092Z,9.77
2023-04-07T02:18:23.707Z,9.68
2023-04-07T02:20:52.707Z,9.52
2023-04-07T02:23:20.213Z,10.30
2023-04-07T02:25:47.777Z,9.48
2023-04-07T02:28:15.629Z,9.57
2023-04-07T02:30:46.201Z,9.43
2023-04-07T02:33:13.700Z,9.85
2023-04-07T02:35:44.137Z,10.40
2023-04-07T02:38:12.828Z,10.13
2023-04-07T02:40:41.020Z,9.80
2023-04-07T02:43:08.695Z,10.27
2023-04-07T02:45:36.332Z,9.75
2023-04-07T02:48:04.729Z,10.57
2023-04-07T02:50:32.217Z,10.00
2023-04-07T02:52:59.800Z,9.05
2023-04-07T02:55:27.325Z,9.80
2023-04-07T02:57:55.021Z,9.65
2023-04-07T03:00:35.772Z,9.80
2023-04-07T03:03:16.579Z,10.15
2023-04-07T03:05:55.382Z,9.20
2023-04-07T03:08:23.125Z,8.82
2023-04-07T03:10:50.974Z,9.52
2023-04-07T03:13:24.567Z,10.05
2023-04-07T03:15:52.110Z,9.05
2023-04-07T03:18:21.109Z,10.30
2023-04-07T03:20:49.400Z,10.07
2023-04-07T03:23:18.600Z,10.00
2023-04-07T03:25:47.555Z,10.48
2023-04-07T03:28:17.122Z,9.75
2023-04-07T03:30:44.703Z,9.50
2023-04-07T03:33:12.518Z,8.90
2023-04-07T03:35:40.826Z,10.25
2023-04-07T03:38:09.168Z,9.95
2023-04-07T03:40:37.709Z,10.13
2023-04-07T03:43:05.421Z,10.18
2023-04-07T03:45:33.900Z,10.20
2023-04-07T03:48:02.409Z,9.57
2023-04-07T03:50:31.069Z,10.20
2023-04-07T03:53:09.647Z,11.20
2023-04-07T03:55:38.013Z,9.45
2023-04-07T03:58:14.057Z,8.45
2023-04-07T04:00:41.636Z,10.55
2023-04-07T04:03:11.457Z,9.85
2023-04-07T04:05:48.051Z,10.20
2023-04-07T04:08:20.787Z,9.85
2023-04-07T04:10:48.658Z,9.82
2023-04-07T04:13:16.292Z,9.98
2023-04-07T04:15:44.210Z,9.68
2023-04-07T04:18:15.934Z,9.95
2023-04-07T04:20:43.605Z,9.93
2023-04-07T04:23:11.572Z,8.82
2023-04-07T04:25:41.932Z,9.02
2023-04-07T04:28:12.249Z,9.80
2023-04-07T04:30:41.695Z,9.43
2023-04-07T04:33:10.497Z,9.43
2023-04-07T04:35:46.669Z,9.07
2023-04-07T04:38:20.068Z,8.75
2023-04-07T04:40:54.530Z,10.02
2023-04-07T04:43:27.641Z,9.30
2023-04-07T04:45:59.704Z,11.32
2023-04-07T04:48:29.848Z,9.27
2023-04-07T04:50:58.319Z,11.32
2023-04-07T04:53:26.104Z,9.88
2023-04-07T04:55:58.186Z,9.95
2023-04-07T04:58:40.448Z,9.43
2023-04-07T05:01:09.091Z,10.73
2023-04-07T05:03:43.630Z,9.77
2023-04-07T05:06:19.621Z,10.70
2023-04-07T05:08:49.521Z,10.40
2023-04-07T05:11:21.592Z,10.15
2023-04-07T05:13:53.104Z,9.48
2023-04-07T05:16:21.450Z,9.82
2023-04-07T05:18:49.140Z,10.07
2023-04-07T05:21:17.612Z,12.70
2023-04-07T05:23:45.678Z,9.45
2023-04-07T05:26:14.756Z,9.82
2023-04-07T05:28:43.172Z,9.73
2023-04-07T05:31:16.941Z,9.80
2023-04-07T05:33:47.615Z,9.73
2023-04-07T05:36:16.286Z,9.80
2023-04-07T05:38:44.161Z,10.55
2023-04-07T05:41:16.742Z,10.50
2023-04-07T05:43:44.386Z,10.27
2023-04-07T05:46:12.228Z,10.80
2023-04-07T05:48:48.181Z,10.50
2023-04-07T05:51:16.482Z,10.48
2023-04-07T05:53:44.164Z,9.90
2023-04-07T05:56:13.358Z,10.05
2023-04-07T05:58:45.104Z,9.82
2023-04-07T06:01:14.309Z,11.07
2023-04-07T06:03:42.730Z,9.85
2023-04-07T06:06:20.801Z,10.90
2023-04-07T06:08:48.468Z,10.05
2023-04-07T06:11:15.974Z,11.63
2023-04-07T06:13:43.882Z,10.35
2023-04-07T06:16:11.519Z,10.55
2023-04-07T06:18:39.052Z,10.25
2023-04-07T06:21:08.066Z,11.77
2023-04-07T06:23:35.517Z,10.60
2023-04-07T06:26:12.340Z,10.57
2023-04-07T06:28:40.486Z,11.18
2023-04-07T06:31:09.251Z,10.20
2023-04-07T06:33:37.747Z,10.68
2023-04-07T06:36:05.528Z,11.57
2023-04-07T06:38:33.314Z,9.85
2023-04-07T06:41:00.876Z,10.27
2023-04-07T06:43:28.739Z,10.70
2023-04-07T06:46:02.105Z,10.45
2023-04-07T06:48:29.649Z,10.50
2023-04-07T06:50:57.186Z,10.23
2023-04-07T06:53:24.708Z,11.10
2023-04-07T06:55:52.351Z,10.95
2023-04-07T06:58:19.944Z,10.25
2023-04-07T07:00:47.436Z,11.05
2023-04-07T07:03:15.322Z,10.63
2023-04-07T07:05:43.273Z,9.82
2023-04-07T07:08:11.073Z,11.18
2023-04-07T07:10:38.857Z,10.85
2023-04-07T07:13:06.776Z,10.05
2023-04-07T07:15:34.423Z,10.02
2023-04-07T07:18:02.207Z,11.05
2023-04-07T07:20:30.597Z,10.68
2023-04-07T07:22:58.640Z,11.50
2023-04-07T07:25:30.006Z,11.15
2023-04-07T07:27:57.751Z,11.77
2023-04-07T07:30:26.307Z,11.38
2023-04-07T07:32:55.063Z,11.27
2023-04-07T07:35:23.446Z,12.35
2023-04-07T07:37:52.105Z,12.43
2023-04-07T07:40:19.668Z,11.68
2023-04-07T07:42:47.306Z,12.20
2023-04-07T07:45:14.984Z,12.93
2023-04-07T07:47:42.536Z,12.55
2023-04-07T07:50:10.518Z,11.65
2023-04-07T07:52:38.050Z,13.05
2023-04-07T07:55:06.026Z,12.52
2023-04-07T07:57:33.785Z,11.98
2023-04-07T08:00:03.017Z,12.15
2023-04-07T08:02:43.544Z,12.25
2023-04-07T08:05:11.544Z,13.15
2023-04-07T08:07:39.552Z,11.95
2023-04-07T08:10:08.400Z,12.35
2023-04-07T08:12:35.981Z,12.52
2023-04-07T08:15:04.040Z,11.23
2023-04-07T08:17:34.423Z,12.45
2023-04-07T08:20:03.936Z,11.85
2023-04-07T08:22:31.728Z,12.73
2023-04-07T08:24:59.437Z,13.57
2023-04-07T08:27:27.034Z,12.88
2023-04-07T08:30:09.252Z,12.18
2023-04-07T08:32:46.317Z,14.13
2023-04-07T08:35:17.262Z,11.75
2023-04-07T08:37:44.814Z,12.30
2023-04-07T08:40:12.837Z,12.20
2023-04-07T08:42:47.181Z,13.30
2023-04-07T08:45:19.144Z,13.65
2023-04-07T08:47:50.057Z,13.02
2023-04-07T08:50:19.410Z,12.98
2023-04-07T08:52:53.537Z,13.15
2023-04-07T08:55:21.333Z,12.20
2023-04-07T08:57:49.607Z,12.27
2023-04-07T09:00:17.385Z,12.43
2023-04-07T09:02:45.809Z,11.88
2023-04-07T09:05:16.962Z,13.27
2023-04-07T09:07:44.860Z,12.93
2023-04-07T09:10:12.660Z,14.40
2023-04-07T09:12:49.478Z,14.75
2023-04-07T09:15:17.144Z,13.45
2023-04-07T09:17:44.766Z,13.30
2023-04-07T09:20:12.727Z,14.80
2023-04-07T09:22:47.454Z,15.07
2023-04-07T09:25:16.546Z,14.20
2023-04-07T09:28:03.344Z,14.48
2023-04-07T09:30:33.810Z,14.35
2023-04-07T09:33:02.112Z,15.93
2023-04-07T09:35:30.198Z,12.52
2023-04-07T09:38:06.092Z,13.77
2023-04-07T09:40:37.943Z,15.20
2023-04-07T09:43:06.751Z,15.38
2023-04-07T09:45:39.416Z,13.98
2023-04-07T09:48:08.983Z,13.90
2023-04-07T09:50:51.197Z,13.48
2023-04-07T09:53:23.279Z,12.25
2023-04-07T09:55:51.117Z,12.07
2023-04-07T09:58:19.383Z,12.02
2023-04-07T10:00:47.495Z,11.90
2023-04-07T10:03:15.778Z,11.40
2023-04-07T10:05:44.806Z,12.27
2023-04-07T10:08:12.297Z,13.10
2023-04-07T10:10:42.891Z,12.82
2023-04-07T10:13:11.846Z,13.30
2023-04-07T10:15:40.326Z,13.80
2023-04-07T10:18:09.174Z,13.65
2023-04-07T10:20:41.609Z,13.68
2023-04-07T10:23:19.516Z,13.48
2023-04-07T10:25:50.742Z,12.50
2023-04-07T10:28:21.577Z,12.73
2023-04-07T10:30:50.152Z,12.95
2023-04-07T10:33:18.610Z,13.55
2023-04-07T10:36:17.232Z,12.98
2023-04-07T10:39:11.422Z,13.13
2023-04-07T10:41:41.474Z,12.13
2023-04-07T10:44:40.822Z,12.45
2023-04-07T10:47:08.792Z,13.45
2023-04-07T10:49:36.700Z,13.48
2023-04-07T10:52:13.282Z,13.63
2023-04-07T10:54:41.561Z,13.70
2023-04-07T10:57:12.020Z,13.60
2023-04-07T10:59:47.194Z,13.10
2023-04-07T11:02:14.771Z,12.73
2023-04-07T11:04:47.231Z,13.32
2023-04-07T11:07:16.555Z,12.10
2023-04-07T11:09:44.324Z,14.02
2023-04-07T11:12:32.085Z,13.50
2023-04-07T11:15:17.272Z,14.43
2023-04-07T11:17:44.965Z,13.60
2023-04-07T11:20:12.561Z,13.35
2023-04-07T11:22:40.880Z,15.20
2023-04-07T11:25:22.090Z,14.25
2023-04-07T11:27:49.818Z,14.15
2023-04-07T11:30:18.248Z,13.02
2023-04-07T11:32:49.444Z,15.52
2023-04-07T11:35:17.363Z,13.88
2023-04-07T11:37:45.080Z,14.52
2023-04-07T11:40:19.194Z,15.45
2023-04-07T11:42:50.049Z,15.45
2023-04-07T11:45:19.909Z,15.02
2023-04-07T11:47:47.892Z,13.95
2023-04-07T11:50:15.656Z,14.50
2023-04-07T11:52:52.654Z,14.98
2023-04-07T11:55:24.742Z,15.60
2023-04-07T11:57:53.409Z,14.48
2023-04-07T12:00:24.554Z,15.98
2023-04-07T12:02:53.931Z,16.58
2023-04-07T12:05:22.480Z,15.40
2023-04-07T12:07:55.531Z,15.35
2023-04-07T12:10:28.714Z,15.60
2023-04-07T12:12:59.529Z,14.55
2023-04-07T12:15:27.742Z,14.60
2023-04-07T12:17:58.139Z,14.45
2023-04-07T12:20:26.085Z,14.73
2023-04-07T12:22:54.187Z,15.18
2023-04-07T12:25:22.157Z,15.57
2023-04-07T12:27:49.982Z,15.50
2023-04-07T12:30:18.543Z,14.93
2023-04-07T12:32:48.586Z,14.95
2023-04-07T12:35:16.840Z,16.02
2023-04-07T12:37:44.792Z,15.18
2023-04-07T12:40:18.648Z,14.68
2023-04-07T12:42:55.097Z,14.57
2023-04-07T12:45:23.029Z,15.13
2023-04-07T12:47:53.614Z,15.88
2023-04-07T12:50:21.630Z,16.33
2023-04-07T12:52:49.393Z,16.45
2023-04-07T12:55:17.677Z,15.75
2023-04-07T12:57:48.576Z,16.00
2023-04-07T13:00:16.671Z,14.65
2023-04-07T13:02:45.037Z,16.10
2023-04-07T13:05:13.031Z,15.88
2023-04-07T13:07:40.856Z,15.48
2023-04-07T13:10:09.496Z,16.00
2023-04-07T13:12:37.464Z,16.23
2023-04-07T13:15:07.045Z,15.63
2023-04-07T13:17:36.643Z,16.27
2023-04-07T13:20:06.605Z,14.93
2023-04-07T13:22:35.826Z,15.02
2023-04-07T13:25:04.576Z,14.73
2023-04-07T13:27:32.312Z,14.68
2023-04-07T13:29:59.804Z,16.17
2023-04-07T13:32:27.804Z,15.80
2023-04-07T13:34:55.366Z,14.57
2023-04-07T13:37:23.603Z,16.85
2023-04-07T13:39:52.115Z,16.70
2023-04-07T13:42:22.442Z,16.00
2023-04-07T13:44:51.347Z,16.25
2023-04-07T13:47:21.840Z,15.23
2023-04-07T13:49:49.718Z,13.93
2023-04-07T13:52:20.885Z,15.43
2023-04-07T13:54:48.782Z,16.05
2023-04-07T13:57:20.926Z,15.52
2023-04-07T13:59:52.810Z,15.80
2023-04-07T14:02:24.681Z,16.35
2023-04-07T14:04:53.324Z,15.82
2023-04-07T14:07:32.140Z,16.85
2023-04-07T14:10:02.314Z,16.63
2023-04-07T14:12:30.393Z,17.05
2023-04-07T14:14:58.029Z,15.07
2023-04-07T14:17:26.329Z,15.13
2023-04-07T14:19:54.226Z,15.75
2023-04-07T14:22:22.282Z,15.02
2023-04-07T14:24:50.119Z,15.68
2023-04-07T14:27:21.126Z,15.80
2023-04-07T14:29:49.350Z,16.75
2023-04-07T14:32:17.369Z,16.73
2023-04-07T14:34:45.101Z,16.35
2023-04-07T14:37:14.188Z,15.85
2023-04-07T14:39:48.478Z,16.92
2023-04-07T14:42:19.834Z,16.63
2023-04-07T14:44:47.556Z,17.63
2023-04-07T14:47:15.185Z,15.48
2023-04-07T14:49:42.783Z,15.73
2023-04-07T14:52:13.803Z,16.58
2023-04-07T14:54:41.541Z,16.10
2023-04-07T14:57:12.290Z,15.27
2023-04-07T14:59:39.953Z,16.80
2023-04-07T15:02:07.492Z,15.25
2023-04-07T15:04:35.097Z,16.55
2023-04-07T15:07:03.277Z,16.85
2023-04-07T15:09:31.426Z,15.18
2023-04-07T15:12:00.922Z,16.27
2023-04-07T15:14:29.783Z,15.57
2023-04-07T15:16:57.393Z,16.63
2023-04-07T15:19:25.047Z,15.98
2023-04-07T15:21:52.744Z,16.08
2023-04-07T15:24:22.260Z,16.13
2023-04-07T15:26:49.993Z,16.52
2023-04-07T15:29:20.737Z,16.30
2023-04-07T15:31:54.475Z,18.90
2023-04-07T15:34:22.087Z,17.25
2023-04-07T15:36:49.737Z,20.85
2023-04-07T15:39:17.548Z,18.20
2023-04-07T15:41:45.331Z,15.40
2023-04-07T15:44:19.237Z,15.48
2023-04-07T15:46:47.098Z,11.30
2023-04-07T15:49:20.129Z,6.32
2023-04-07T15:51:48.368Z,4.30
2023-04-07T15:54:16.337Z,6.35
2023-04-07T15:56:43.861Z,7.90
2023-04-07T15:59:11.474Z,8.02
2023-04-07T16:01:39.219Z,7.57
2023-04-07T16:04:07.111Z,7.10
2023-04-07T16:06:34.704Z,7.35
2023-04-07T16:09:03.052Z,3.85
2023-04-07T16:11:30.709Z,2.67
2023-04-07T16:13:58.347Z,2.47
2023-04-07T16:16:26.003Z,2.83
2023-04-07T16:18:53.864Z,2.63
2023-04-07T16:21:22.215Z,2.47
2023-04-07T16:23:50.421Z,2.85
2023-04-07T16:26:22.979Z,2.13
2023-04-07T16:28:55.283Z,2.25
2023-04-07T16:31:23.148Z,2.33
2023-04-07T16:33:51.622Z,2.33
2023-04-07T16:36:26.249Z,2.42
2023-04-07T16:39:04.728Z,2.33
2023-04-07T16:41:48.852Z,2.30
2023-04-07T16:44:17.857Z,2.22
2023-04-07T16:46:56.072Z,2.97
2023-04-07T16:49:26.437Z,3.20
2023-04-07T16:51:57.562Z,5.85
2023-04-07T16:54:31.839Z,8.30
2023-04-07T16:56:59.732Z,11.48
2023-04-07T16:59:30.439Z,13.45
2023-04-07T17:02:08.501Z,16.80
2023-04-07T17:04:40.962Z,15.68
2023-04-07T17:07:09.867Z,15.48
2023-04-07T17:09:38.100Z,15.50
2023-04-07T17:12:11.949Z,15.00
2023-04-07T17:14:39.972Z,15.07
2023-04-07T17:17:09.052Z,15.05
2023-04-07T17:19:38.138Z,14.88
2023-04-07T17:22:06.146Z,15.30
2023-04-07T17:24:34.070Z,15.63
2023-04-07T17:27:04.178Z,16.42
2023-04-07T17:29:31.841Z,16.17
2023-04-07T17:31:59.641Z,14.48
2023-04-07T17:34:28.070Z,15.80
2023-04-07T17:36:56.236Z,15.25
2023-04-07T17:39:23.787Z,15.88
2023-04-07T17:41:51.920Z,17.02
2023-04-07T17:44:20.083Z,16.77
2023-04-07T17:46:48.820Z,15.80
2023-04-07T17:49:17.438Z,15.45
2023-04-07T17:51:46.162Z,15.38
2023-04-07T17:54:14.686Z,16.50
2023-04-07T17:56:42.772Z,16.48
2023-04-07T17:59:10.412Z,13.75
2023-04-07T18:01:40.198Z,18.80
2023-04-07T18:04:08.587Z,16.52
2023-04-07T18:06:37.150Z,14.63
2023-04-07T18:09:05.246Z,15.95
2023-04-07T18:11:33.318Z,14.85
2023-04-07T18:14:00.969Z,15.52
2023-04-07T18:16:29.694Z,14.23
2023-04-07T18:18:57.906Z,14.80
2023-04-07T18:21:25.582Z,13.80
2023-04-07T18:23:53.201Z,13.45
2023-04-07T18:26:21.858Z,13.60
2023-04-07T18:28:49.901Z,13.50
2023-04-07T18:31:18.970Z,19.17
2023-04-07T18:33:46.554Z,14.02
2023-04-07T18:36:14.552Z,12.65
2023-04-07T18:38:42.637Z,15.00
2023-04-07T18:41:11.575Z,13.02
2023-04-07T18:43:39.417Z,11.18
2023-04-07T18:46:07.379Z,12.63
2023-04-07T18:48:35.136Z,11.85
2023-04-07T18:51:03.244Z,11.88
2023-04-07T18:53:31.339Z,10.85
2023-04-07T18:55:58.994Z,10.65
2023-04-07T18:58:26.602Z,9.93
2023-04-07T19:00:54.751Z,9.90
2023-04-07T19:03:22.656Z,10.30
2023-04-07T19:05:52.524Z,9.73
2023-04-07T19:08:20.687Z,10.38
2023-04-07T19:10:50.833Z,10.05
2023-04-07T19:13:19.450Z,9.48
2023-04-07T19:15:47.417Z,9.63
2023-04-07T19:18:15.218Z,10.32
2023-04-07T19:20:43.140Z,9.90
2023-04-07T19:23:13.110Z,10.10
2023-04-07T19:25:44.330Z,9.52
2023-04-07T19:28:14.000Z,8.10
2023-04-07T19:30:41.763Z,8.30
2023-04-07T19:33:11.146Z,7.97
2023-04-07T19:35:41.691Z,7.68
2023-04-07T19:38:09.324Z,9.35
2023-04-07T19:40:37.396Z,12.45
2023-04-07T19:43:05.120Z,11.23
2023-04-07T19:45:32.790Z,11.40
2023-04-07T19:48:00.696Z,12.55
2023-04-07T19:50:28.578Z,12.90
2023-04-07T19:52:56.432Z,13.25
2023-04-07T19:55:24.423Z,12.25
2023-04-07T19:57:52.239Z,11.70
2023-04-07T20:00:20.167Z,11.73
2023-04-07T20:02:50.868Z,12.23
2023-04-07T20:05:19.889Z,11.85
2023-04-07T20:07:48.086Z,12.07
2023-04-07T20:10:16.381Z,13.32
2023-04-07T20:12:44.139Z,11.93
2023-04-07T20:15:14.291Z,12.65
2023-04-07T20:17:42.625Z,12.23
2023-04-07T20:20:11.786Z,13.65
2023-04-07T20:22:39.651Z,13.88
2023-04-07T20:25:07.940Z,13.45
2023-04-07T20:27:36.829Z,12.68
2023-04-07T20:30:04.968Z,12.60
2023-04-07T20:32:32.909Z,13.45
2023-04-07T20:35:00.737Z,13.18
2023-04-07T20:37:28.600Z,12.52
2023-04-07T20:39:56.670Z,12.30
2023-04-07T20:42:24.574Z,12.07
2023-04-07T20:44:55.081Z,12.38
2023-04-07T20:47:23.986Z,12.45
2023-04-07T20:49:54.906Z,12.18
2023-04-07T20:52:23.092Z,12.88
2023-04-07T20:54:52.320Z,12.73
2023-04-07T20:57:20.319Z,11.93
2023-04-07T20:59:48.487Z,12.10
2023-04-07T21:02:16.411Z,12.27
2023-04-07T21:04:44.444Z,11.40
2023-04-07T21:07:12.506Z,11.45
2023-04-07T21:09:41.551Z,12.18
2023-04-07T21:12:10.647Z,12.23
2023-04-07T21:14:39.663Z,12.40
2023-04-07T21:17:07.866Z,12.35
2023-04-07T21:19:35.817Z,11.98
2023-04-07T21:22:04.950Z,12.48
2023-04-07T21:24:32.840Z,12.45
2023-04-07T21:27:02.155Z,11.45
2023-04-07T21:29:31.993Z,14.75
2023-04-07T21:32:00.004Z,14.20
2023-04-07T21:34:27.652Z,14.85
2023-04-07T21:36:55.490Z,16.20
2023-04-07T21:39:25.173Z,15.85
2023-04-07T21:41:52.952Z,13.68
2023-04-07T21:44:21.781Z,12.95
2023-04-07T21:46:49.566Z,13.63
2023-04-07T21:49:22.451Z,13.15
2023-04-07T21:51:50.550Z,13.43
2023-04-07T21:54:18.440Z,13.10
2023-04-07T21:56:49.195Z,13.30
2023-04-07T21:59:19.948Z,15.55
2023-04-07T22:01:47.829Z,12.10
2023-04-07T22:04:16.141Z,13.20
2023-04-07T22:06:43.928Z,13.05
2023-04-07T22:09:11.977Z,13.35
2023-04-07T22:11:39.981Z,13.27
2023-04-07T22:14:07.528Z,13.40
2023-04-07T22:16:35.496Z,14.40
2023-04-07T22:19:05.753Z,14.55
2023-04-07T22:21:35.024Z,14.15
2023-04-07T22:24:02.775Z,14.55
2023-04-07T22:26:31.801Z,14.95
2023-04-07T22:28:59.381Z,14.70
2023-04-07T22:31:27.133Z,14.23
2023-04-07T22:33:54.818Z,13.90
2023-04-07T22:36:23.562Z,14.77
2023-04-07T22:38:51.262Z,14.02
2023-04-07T22:41:18.942Z,12.90
2023-04-07T22:43:46.521Z,13.70
2023-04-07T22:46:16.009Z,14.32
2023-04-07T22:48:43.545Z,13.95
2023-04-07T22:51:11.600Z,14.98
2023-04-07T22:53:39.340Z,14.68
2023-04-07T22:56:07.471Z,14.13
2023-04-07T22:58:34.971Z,15.10
2023-04-07T23:01:02.511Z,15.20
2023-04-07T23:03:30.762Z,13.77
2023-04-07T23:05:59.633Z,14.25
2023-04-07T23:08:27.269Z,12.52
2023-04-07T23:10:54.810Z,13.80
2023-04-07T23:13:22.613Z,13.35
2023-04-07T23:15:50.072Z,13.75
2023-04-07T23:18:17.607Z,12.90
2023-04-07T23:20:52.195Z,13.35
2023-04-07T23:23:19.810Z,13.07
2023-04-07T23:25:50.141Z,13.40
2023-04-07T23:28:17.880Z,13.50
2023-04-07T23:30:45.720Z,14.75
2023-04-07T23:33:14.130Z,13.82
2023-04-07T23:35:41.723Z,15.13
2023-04-07T23:38:11.025Z,15.40
2023-04-07T23:40:38.790Z,13.35
2023-04-07T23:43:06.856Z,14.18
2023-04-07T23:45:34.520Z,13.45
2023-04-07T23:48:02.299Z,14.57
2023-04-07T23:50:30.140Z,14.10
2023-04-07T23:52:57.757Z,14.43
2023-04-07T23:55:25.346Z,14.40
2023-04-07T23:57:52.908Z,13.65
